sensor_id;sensor_type;location;lat;lon;timestamp;pressure;altitude;pressure_sealevel;temperature;humidity
12213;BME280;6169;44.158;22.788;2024-03-08T00:03:50;101606.06;;;6.55;58.39
12213;BME280;6169;44.158;22.788;2024-03-08T00:08:52;101614.31;;;6.25;58.96
12213;BME280;6169;44.158;22.788;2024-03-08T00:13:56;101609.91;;;6.03;58.75
12213;BME280;6169;44.158;22.788;2024-03-08T00:18:58;101612.59;;;6.39;58.09
12213;BME280;6169;44.158;22.788;2024-03-08T00:24:00;101615.25;;;6.61;57.88
12213;BME280;6169;44.158;22.788;2024-03-08T00:29:03;101614.31;;;6.25;59.78
12213;BME280;6169;44.158;22.788;2024-03-08T00:34:05;101614.75;;;7.00;58.08
12213;BME280;6169;44.158;22.788;2024-03-08T00:39:07;101616.72;;;6.85;58.05
12213;BME280;6169;44.158;22.788;2024-03-08T00:44:11;101607.66;;;6.99;58.18
12213;BME280;6169;44.158;22.788;2024-03-08T00:49:13;101625.00;;;6.76;57.52
12213;BME280;6169;44.158;22.788;2024-03-08T00:54:16;101617.56;;;6.85;57.88
12213;BME280;6169;44.158;22.788;2024-03-08T00:59:19;101610.59;;;6.48;58.63
12213;BME280;6169;44.158;22.788;2024-03-08T01:04:21;101615.69;;;6.86;58.64
12213;BME280;6169;44.158;22.788;2024-03-08T01:09:24;101604.28;;;6.90;58.18
12213;BME280;6169;44.158;22.788;2024-03-08T01:14:28;101607.31;;;6.81;58.58
12213;BME280;6169;44.158;22.788;2024-03-08T01:19:31;101608.25;;;6.94;58.13
12213;BME280;6169;44.158;22.788;2024-03-08T01:24:34;101612.28;;;6.55;58.48
12213;BME280;6169;44.158;22.788;2024-03-08T01:29:37;101612.38;;;6.62;59.81
12213;BME280;6169;44.158;22.788;2024-03-08T01:34:39;101601.47;;;6.55;59.63
12213;BME280;6169;44.158;22.788;2024-03-08T01:39:42;101607.66;;;6.49;59.66
12213;BME280;6169;44.158;22.788;2024-03-08T01:44:46;101619.31;;;6.71;58.43
12213;BME280;6169;44.158;22.788;2024-03-08T01:49:48;101614.69;;;6.65;59.09
12213;BME280;6169;44.158;22.788;2024-03-08T01:54:50;101611.19;;;6.71;59.53
12213;BME280;6169;44.158;22.788;2024-03-08T01:59:54;101613.75;;;6.79;58.76
12213;BME280;6169;44.158;22.788;2024-03-08T02:04:57;101602.91;;;6.51;59.31
12213;BME280;6169;44.158;22.788;2024-03-08T02:09:59;101606.88;;;6.55;58.80
12213;BME280;6169;44.158;22.788;2024-03-08T02:15:03;101613.59;;;6.60;59.48
12213;BME280;6169;44.158;22.788;2024-03-08T02:20:07;101604.00;;;6.57;59.82
12213;BME280;6169;44.158;22.788;2024-03-08T02:25:12;101608.44;;;6.65;58.02
12213;BME280;6169;44.158;22.788;2024-03-08T02:30:14;101607.56;;;6.86;58.35
12213;BME280;6169;44.158;22.788;2024-03-08T02:35:18;101615.19;;;6.75;58.82
12213;BME280;6169;44.158;22.788;2024-03-08T02:40:22;101614.88;;;6.64;58.82
12213;BME280;6169;44.158;22.788;2024-03-08T02:45:24;101609.47;;;6.92;58.24
12213;BME280;6169;44.158;22.788;2024-03-08T02:50:26;101613.88;;;6.93;57.48
12213;BME280;6169;44.158;22.788;2024-03-08T02:55:30;101614.75;;;7.00;57.15
12213;BME280;6169;44.158;22.788;2024-03-08T03:00:34;101611.25;;;6.78;57.27
12213;BME280;6169;44.158;22.788;2024-03-08T03:05:36;101609.81;;;6.82;56.90
12213;BME280;6169;44.158;22.788;2024-03-08T03:10:39;101613.09;;;6.99;57.72
12213;BME280;6169;44.158;22.788;2024-03-08T03:15:41;101611.59;;;6.96;58.20
12213;BME280;6169;44.158;22.788;2024-03-08T03:20:43;101612.41;;;6.90;59.54
12213;BME280;6169;44.158;22.788;2024-03-08T03:25:47;101615.53;;;6.94;57.76
12213;BME280;6169;44.158;22.788;2024-03-08T03:30:49;101617.59;;;6.92;57.45
12213;BME280;6169;44.158;22.788;2024-03-08T03:35:51;101619.47;;;6.91;57.17
12213;BME280;6169;44.158;22.788;2024-03-08T03:40:55;101620.41;;;6.77;57.58
12213;BME280;6169;44.158;22.788;2024-03-08T03:45:58;101613.16;;;6.56;57.76
12213;BME280;6169;44.158;22.788;2024-03-08T03:51:00;101601.59;;;6.69;57.31
12213;BME280;6169;44.158;22.788;2024-03-08T03:56:04;101620.22;;;6.78;58.42
12213;BME280;6169;44.158;22.788;2024-03-08T04:01:07;101622.13;;;6.85;57.97
12213;BME280;6169;44.158;22.788;2024-03-08T04:06:10;101621.66;;;6.53;59.04
12213;BME280;6169;44.158;22.788;2024-03-08T04:11:13;101633.53;;;6.80;57.77
12213;BME280;6169;44.158;22.788;2024-03-08T04:16:16;101640.22;;;6.56;58.07
12213;BME280;6169;44.158;22.788;2024-03-08T04:21:19;101633.69;;;7.00;58.25
12213;BME280;6169;44.158;22.788;2024-03-08T04:26:23;101639.59;;;7.04;57.39
12213;BME280;6169;44.158;22.788;2024-03-08T04:31:26;101648.00;;;7.15;57.46
12213;BME280;6169;44.158;22.788;2024-03-08T04:36:28;101649.84;;;7.15;57.17
12213;BME280;6169;44.158;22.788;2024-03-08T04:41:32;101645.47;;;6.86;58.42
12213;BME280;6169;44.158;22.788;2024-03-08T04:46:34;101648.06;;;6.29;59.60
12213;BME280;6169;44.158;22.788;2024-03-08T04:51:37;101643.94;;;6.33;58.63
12213;BME280;6169;44.158;22.788;2024-03-08T04:56:40;101647.16;;;6.44;59.42
12213;BME280;6169;44.158;22.788;2024-03-08T05:01:43;101648.66;;;6.68;58.57
12213;BME280;6169;44.158;22.788;2024-03-08T05:06:45;101660.75;;;7.21;56.84
12213;BME280;6169;44.158;22.788;2024-03-08T05:11:48;101673.88;;;6.96;57.96
12213;BME280;6169;44.158;22.788;2024-03-08T05:16:50;101677.00;;;7.21;57.29
12213;BME280;6169;44.158;22.788;2024-03-08T05:21:52;101681.19;;;7.24;56.64
12213;BME280;6169;44.158;22.788;2024-03-08T05:26:56;101680.75;;;6.92;57.27
12213;BME280;6169;44.158;22.788;2024-03-08T05:31:59;101685.69;;;7.17;56.25
12213;BME280;6169;44.158;22.788;2024-03-08T05:37:03;101529.91;;;5.72;58.45
12213;BME280;6169;44.158;22.788;2024-03-08T05:42:07;101704.19;;;6.85;56.34
12213;BME280;6169;44.158;22.788;2024-03-08T05:47:10;101694.91;;;6.94;56.27
12213;BME280;6169;44.158;22.788;2024-03-08T05:52:12;101698.28;;;7.03;56.73
12213;BME280;6169;44.158;22.788;2024-03-08T05:57:16;101695.72;;;7.16;56.02
12213;BME280;6169;44.158;22.788;2024-03-08T06:02:18;101666.88;;;7.09;55.90
12213;BME280;6169;44.158;22.788;2024-03-08T06:07:20;101704.88;;;7.15;56.62
12213;BME280;6169;44.158;22.788;2024-03-08T06:12:24;101710.47;;;7.14;56.77
12213;BME280;6169;44.158;22.788;2024-03-08T06:17:29;101717.38;;;6.52;57.70
12213;BME280;6169;44.158;22.788;2024-03-08T06:22:31;101711.34;;;6.71;57.46
12213;BME280;6169;44.158;22.788;2024-03-08T06:27:35;101724.09;;;7.49;55.77
12213;BME280;6169;44.158;22.788;2024-03-08T06:32:37;101702.22;;;7.00;56.04
12213;BME280;6169;44.158;22.788;2024-03-08T06:37:39;101721.81;;;7.24;56.52
12213;BME280;6169;44.158;22.788;2024-03-08T06:42:44;101721.09;;;7.37;55.79
12213;BME280;6169;44.158;22.788;2024-03-08T06:47:46;101727.81;;;7.41;55.79
12213;BME280;6169;44.158;22.788;2024-03-08T06:52:48;101737.03;;;7.25;55.32
12213;BME280;6169;44.158;22.788;2024-03-08T06:57:55;101731.09;;;7.64;54.38
12213;BME280;6169;44.158;22.788;2024-03-08T07:02:58;101738.41;;;7.36;55.99
12213;BME280;6169;44.158;22.788;2024-03-08T07:08:01;101748.81;;;7.32;53.62
12213;BME280;6169;44.158;22.788;2024-03-08T07:13:05;101757.50;;;7.06;54.53
12213;BME280;6169;44.158;22.788;2024-03-08T07:18:07;101747.13;;;7.10;55.38
12213;BME280;6169;44.158;22.788;2024-03-08T07:23:15;101748.06;;;6.81;56.04
12213;BME280;6169;44.158;22.788;2024-03-08T07:28:38;101743.63;;;7.16;55.08
12213;BME280;6169;44.158;22.788;2024-03-08T07:33:40;101745.69;;;7.35;54.47
12213;BME280;6169;44.158;22.788;2024-03-08T07:38:42;101745.06;;;7.68;53.83
12213;BME280;6169;44.158;22.788;2024-03-08T07:43:47;101746.66;;;7.06;54.24
12213;BME280;6169;44.158;22.788;2024-03-08T07:48:50;101748.94;;;7.52;55.66
12213;BME280;6169;44.158;22.788;2024-03-08T07:53:52;101745.66;;;7.92;53.54
12213;BME280;6169;44.158;22.788;2024-03-08T07:58:56;101749.25;;;7.71;53.14
12213;BME280;6169;44.158;22.788;2024-03-08T08:03:58;101743.03;;;7.77;53.68
12213;BME280;6169;44.158;22.788;2024-03-08T08:09:01;101755.97;;;8.09;53.09
12213;BME280;6169;44.158;22.788;2024-03-08T08:14:05;101748.81;;;8.02;52.06
12213;BME280;6169;44.158;22.788;2024-03-08T08:19:10;101754.66;;;7.14;53.55
12213;BME280;6169;44.158;22.788;2024-03-08T08:24:12;101752.09;;;7.28;54.76
12213;BME280;6169;44.158;22.788;2024-03-08T08:29:16;101748.81;;;7.32;54.96
12213;BME280;6169;44.158;22.788;2024-03-08T08:34:18;101756.97;;;7.17;55.48
12213;BME280;6169;44.158;22.788;2024-03-08T08:39:20;101755.81;;;7.05;55.75
12213;BME280;6169;44.158;22.788;2024-03-08T08:44:24;101753.56;;;6.66;56.07
12213;BME280;6169;44.158;22.788;2024-03-08T08:49:27;101739.47;;;6.70;55.86
12213;BME280;6169;44.158;22.788;2024-03-08T08:54:31;101748.94;;;7.52;54.20
12213;BME280;6169;44.158;22.788;2024-03-08T08:59:34;101733.38;;;7.33;53.28
12213;BME280;6169;44.158;22.788;2024-03-08T09:04:37;101744.34;;;8.22;51.82
12213;BME280;6169;44.158;22.788;2024-03-08T09:09:39;101739.69;;;8.09;52.64
12213;BME280;6169;44.158;22.788;2024-03-08T09:14:43;101746.19;;;8.15;51.90
12213;BME280;6169;44.158;22.788;2024-03-08T09:19:45;101727.03;;;7.82;52.65
12213;BME280;6169;44.158;22.788;2024-03-08T09:24:48;101739.91;;;7.73;51.76
12213;BME280;6169;44.158;22.788;2024-03-08T09:29:51;101741.22;;;7.84;53.12
12213;BME280;6169;44.158;22.788;2024-03-08T09:34:53;101736.13;;;8.02;51.26
12213;BME280;6169;44.158;22.788;2024-03-08T09:39:56;101736.13;;;7.39;52.77
12213;BME280;6169;44.158;22.788;2024-03-08T09:45:01;101739.69;;;8.16;52.73
12213;BME280;6169;44.158;22.788;2024-03-08T09:50:03;101742.53;;;8.43;50.97
12213;BME280;6169;44.158;22.788;2024-03-08T09:55:06;101741.88;;;8.41;50.92
12213;BME280;6169;44.158;22.788;2024-03-08T10:00:13;101753.13;;;8.31;51.14
12213;BME280;6169;44.158;22.788;2024-03-08T10:05:24;101749.81;;;8.35;51.36
12213;BME280;6169;44.158;22.788;2024-03-08T10:10:26;101757.84;;;8.09;51.68
12213;BME280;6169;44.158;22.788;2024-03-08T10:15:30;101753.75;;;8.33;50.85
12213;BME280;6169;44.158;22.788;2024-03-08T10:20:33;101747.22;;;8.62;50.33
12213;BME280;6169;44.158;22.788;2024-03-08T10:25:36;101746.00;;;8.91;49.67
12213;BME280;6169;44.158;22.788;2024-03-08T10:30:47;101748.72;;;8.85;49.60
12213;BME280;6169;44.158;22.788;2024-03-08T10:35:49;101740.34;;;8.73;48.90
12213;BME280;6169;44.158;22.788;2024-03-08T10:40:53;101740.78;;;9.23;48.46
12213;BME280;6169;44.158;22.788;2024-03-08T10:46:07;101734.97;;;9.33;47.64
12213;BME280;6169;44.158;22.788;2024-03-08T10:51:15;101724.91;;;9.33;47.20
12213;BME280;6169;44.158;22.788;2024-03-08T10:56:17;101722.13;;;9.86;47.83
12213;BME280;6169;44.158;22.788;2024-03-08T11:01:21;101724.88;;;9.73;46.87
12213;BME280;6169;44.158;22.788;2024-03-08T11:06:30;101722.19;;;9.40;46.78
12213;BME280;6169;44.158;22.788;2024-03-08T11:11:43;101723.25;;;9.32;47.27
12213;BME280;6169;44.158;22.788;2024-03-08T11:16:47;101715.91;;;9.39;46.29
12213;BME280;6169;44.158;22.788;2024-03-08T11:21:57;101705.28;;;9.18;46.89
12213;BME280;6169;44.158;22.788;2024-03-08T11:26:59;101720.91;;;9.56;46.57
12213;BME280;6169;44.158;22.788;2024-03-08T11:32:07;101711.47;;;9.78;45.09
12213;BME280;6169;44.158;22.788;2024-03-08T11:37:13;101682.44;;;9.45;46.64
12213;BME280;6169;44.158;22.788;2024-03-08T11:42:16;101698.94;;;9.77;45.92
12213;BME280;6169;44.158;22.788;2024-03-08T11:47:21;101702.75;;;9.43;45.83
12213;BME280;6169;44.158;22.788;2024-03-08T11:52:23;101693.69;;;9.62;45.14
12213;BME280;6169;44.158;22.788;2024-03-08T11:57:26;101691.97;;;9.95;44.44
12213;BME280;6169;44.158;22.788;2024-03-08T12:02:30;101689.44;;;10.00;45.10
12213;BME280;6169;44.158;22.788;2024-03-08T12:07:32;101681.34;;;9.73;45.22
12213;BME280;6169;44.158;22.788;2024-03-08T12:12:34;101690.59;;;9.45;45.14
12213;BME280;6169;44.158;22.788;2024-03-08T12:17:38;101644.88;;;8.89;45.58
12213;BME280;6169;44.158;22.788;2024-03-08T12:22:41;101696.47;;;8.63;47.08
12213;BME280;6169;44.158;22.788;2024-03-08T12:27:44;101694.81;;;8.62;47.93
12213;BME280;6169;44.158;22.788;2024-03-08T12:32:50;101688.03;;;8.44;48.89
12213;BME280;6169;44.158;22.788;2024-03-08T12:37:54;101683.94;;;8.62;47.89
12213;BME280;6169;44.158;22.788;2024-03-08T12:42:57;101699.59;;;8.53;46.90
12213;BME280;6169;44.158;22.788;2024-03-08T12:48:01;101675.78;;;8.75;47.33
12213;BME280;6169;44.158;22.788;2024-03-08T12:53:04;101669.75;;;8.99;47.29
12213;BME280;6169;44.158;22.788;2024-03-08T12:58:06;101669.53;;;9.14;46.52
12213;BME280;6169;44.158;22.788;2024-03-08T13:03:10;101665.53;;;9.37;46.68
12213;BME280;6169;44.158;22.788;2024-03-08T13:08:12;101669.03;;;9.64;45.98
12213;BME280;6169;44.158;22.788;2024-03-08T13:13:14;101660.50;;;9.40;46.08
12213;BME280;6169;44.158;22.788;2024-03-08T13:18:19;101659.66;;;9.40;46.48
12213;BME280;6169;44.158;22.788;2024-03-08T13:23:21;101667.09;;;9.84;45.28
12213;BME280;6169;44.158;22.788;2024-03-08T13:28:23;101667.75;;;9.73;44.60
12213;BME280;6169;44.158;22.788;2024-03-08T13:33:31;101674.25;;;9.59;45.16
12213;BME280;6169;44.158;22.788;2024-03-08T13:38:35;101665.25;;;9.65;43.86
12213;BME280;6169;44.158;22.788;2024-03-08T13:43:38;101659.59;;;9.73;45.30
12213;BME280;6169;44.158;22.788;2024-03-08T13:48:42;101664.63;;;9.56;45.67
12213;BME280;6169;44.158;22.788;2024-03-08T13:53:45;101659.59;;;9.66;45.35
12213;BME280;6169;44.158;22.788;2024-03-08T13:58:47;101662.41;;;9.27;47.26
12213;BME280;6169;44.158;22.788;2024-03-08T14:03:50;101659.66;;;9.40;47.63
12213;BME280;6169;44.158;22.788;2024-03-08T14:08:52;101658.84;;;9.33;46.25
12213;BME280;6169;44.158;22.788;2024-03-08T14:13:58;101662.63;;;9.05;47.76
12213;BME280;6169;44.158;22.788;2024-03-08T14:19:01;101662.00;;;9.16;47.34
12213;BME280;6169;44.158;22.788;2024-03-08T14:24:06;101657.63;;;9.15;47.78
12213;BME280;6169;44.158;22.788;2024-03-08T14:29:09;101656.16;;;9.26;47.06
12213;BME280;6169;44.158;22.788;2024-03-08T14:34:13;101650.09;;;8.91;48.19
12213;BME280;6169;44.158;22.788;2024-03-08T14:39:15;101648.41;;;9.23;46.04
12213;BME280;6169;44.158;22.788;2024-03-08T14:44:22;101649.06;;;8.65;48.49
12213;BME280;6169;44.158;22.788;2024-03-08T14:49:27;101650.31;;;8.89;48.02
12213;BME280;6169;44.158;22.788;2024-03-08T14:54:29;101656.13;;;4.66;62.43
12213;BME280;6169;44.158;22.788;2024-03-08T14:59:31;101655.59;;;4.71;63.31
12213;BME280;6169;44.158;22.788;2024-03-08T15:04:36;101656.97;;;4.67;64.98
12213;BME280;6169;44.158;22.788;2024-03-08T15:09:38;101648.88;;;4.90;64.32
12213;BME280;6169;44.158;22.788;2024-03-08T15:14:42;101650.13;;;4.79;65.70
12213;BME280;6169;44.158;22.788;2024-03-08T15:19:45;101653.81;;;5.01;65.08
12213;BME280;6169;44.158;22.788;2024-03-08T15:24:48;101650.66;;;4.74;65.57
12213;BME280;6169;44.158;22.788;2024-03-08T15:29:52;101648.28;;;4.80;65.65
12213;BME280;6169;44.158;22.788;2024-03-08T15:34:57;101654.53;;;4.95;65.52
12213;BME280;6169;44.158;22.788;2024-03-08T15:39:59;101653.41;;;4.89;64.50
12213;BME280;6169;44.158;22.788;2024-03-08T15:45:07;101652.72;;;5.25;64.74
12213;BME280;6169;44.158;22.788;2024-03-08T15:50:13;101658.88;;;5.19;63.86
12213;BME280;6169;44.158;22.788;2024-03-08T15:55:16;101656.03;;;4.97;64.81
12213;BME280;6169;44.158;22.788;2024-03-08T16:00:22;101648.88;;;5.05;63.01
12213;BME280;6169;44.158;22.788;2024-03-08T16:05:35;101661.56;;;4.81;65.04
12213;BME280;6169;44.158;22.788;2024-03-08T16:10:37;101652.16;;;5.15;63.91
12213;BME280;6169;44.158;22.788;2024-03-08T16:15:39;101649.91;;;5.04;64.43
12213;BME280;6169;44.158;22.788;2024-03-08T16:20:43;101646.63;;;4.93;65.03
12213;BME280;6169;44.158;22.788;2024-03-08T16:25:47;101646.72;;;5.00;65.28
12213;BME280;6169;44.158;22.788;2024-03-08T16:30:50;101624.44;;;5.21;63.93
12213;BME280;6169;44.158;22.788;2024-03-08T16:35:56;101650.09;;;4.41;66.85
12213;BME280;6169;44.158;22.788;2024-03-08T16:40:58;101655.34;;;4.58;65.98
12213;BME280;6169;44.158;22.788;2024-03-08T16:46:01;101655.50;;;6.92;58.73
12213;BME280;6169;44.158;22.788;2024-03-08T16:51:05;101659.38;;;7.04;56.14
12213;BME280;6169;44.158;22.788;2024-03-08T16:56:09;101655.75;;;7.25;55.77
12213;BME280;6169;44.158;22.788;2024-03-08T17:01:12;101668.16;;;7.69;54.18
12213;BME280;6169;44.158;22.788;2024-03-08T17:06:15;101669.09;;;7.96;53.41
12213;BME280;6169;44.158;22.788;2024-03-08T17:11:19;101668.97;;;8.24;52.20
12213;BME280;6169;44.158;22.788;2024-03-08T17:16:21;101671.75;;;8.44;52.67
12213;BME280;6169;44.158;22.788;2024-03-08T17:21:26;101669.25;;;8.43;51.85
12213;BME280;6169;44.158;22.788;2024-03-08T17:26:28;101670.16;;;5.52;62.00
12213;BME280;6169;44.158;22.788;2024-03-08T17:31:30;101671.13;;;4.69;66.59
12213;BME280;6169;44.158;22.788;2024-03-08T17:36:34;101668.97;;;8.18;54.37
12213;BME280;6169;44.158;22.788;2024-03-08T17:41:36;101672.09;;;8.15;53.14
12213;BME280;6169;44.158;22.788;2024-03-08T17:46:40;101674.50;;;7.96;53.89
12213;BME280;6169;44.158;22.788;2024-03-08T17:51:44;101671.19;;;7.94;53.49
12213;BME280;6169;44.158;22.788;2024-03-08T17:56:46;101670.06;;;7.75;53.53
12213;BME280;6169;44.158;22.788;2024-03-08T18:01:48;101666.97;;;7.85;52.84
12213;BME280;6169;44.158;22.788;2024-03-08T18:06:52;101677.00;;;7.50;54.41
12213;BME280;6169;44.158;22.788;2024-03-08T18:11:54;101679.72;;;7.50;53.94
12213;BME280;6169;44.158;22.788;2024-03-08T18:16:59;101673.41;;;7.42;53.97
12213;BME280;6169;44.158;22.788;2024-03-08T18:22:03;101672.53;;;7.35;53.99
12213;BME280;6169;44.158;22.788;2024-03-08T18:27:05;101672.41;;;7.22;54.12
12213;BME280;6169;44.158;22.788;2024-03-08T18:32:08;101670.75;;;6.71;57.26
12213;BME280;6169;44.158;22.788;2024-03-08T18:37:11;101677.84;;;7.00;54.79
12213;BME280;6169;44.158;22.788;2024-03-08T18:42:13;101672.63;;;6.92;56.11
12213;BME280;6169;44.158;22.788;2024-03-08T18:47:15;101674.72;;;6.97;55.93
12213;BME280;6169;44.158;22.788;2024-03-08T18:52:19;101668.56;;;6.82;56.61
12213;BME280;6169;44.158;22.788;2024-03-08T18:57:21;101676.31;;;6.42;57.06
12213;BME280;6169;44.158;22.788;2024-03-08T19:02:23;101676.09;;;6.65;57.21
12213;BME280;6169;44.158;22.788;2024-03-08T19:07:27;101676.22;;;6.78;56.95
12213;BME280;6169;44.158;22.788;2024-03-08T19:12:31;101673.06;;;6.96;55.99
12213;BME280;6169;44.158;22.788;2024-03-08T19:17:34;101688.59;;;4.27;66.97
12213;BME280;6169;44.158;22.788;2024-03-08T19:22:37;101673.41;;;6.65;58.80
12213;BME280;6169;44.158;22.788;2024-03-08T19:27:40;101676.88;;;7.08;56.83
12213;BME280;6169;44.158;22.788;2024-03-08T19:32:43;101682.50;;;6.78;57.63
12213;BME280;6169;44.158;22.788;2024-03-08T19:37:46;101682.00;;;6.75;58.31
12213;BME280;6169;44.158;22.788;2024-03-08T19:42:49;101677.59;;;6.67;57.89
12213;BME280;6169;44.158;22.788;2024-03-08T19:47:53;101676.00;;;7.01;57.25
12213;BME280;6169;44.158;22.788;2024-03-08T19:52:57;101663.91;;;6.32;59.06
12213;BME280;6169;44.158;22.788;2024-03-08T19:58:04;101677.13;;;6.85;56.60
12213;BME280;6169;44.158;22.788;2024-03-08T20:03:07;101672.31;;;6.59;58.53
12213;BME280;6169;44.158;22.788;2024-03-08T20:08:12;101669.09;;;6.70;58.50
12213;BME280;6169;44.158;22.788;2024-03-08T20:13:15;101683.94;;;4.13;68.46
12213;BME280;6169;44.158;22.788;2024-03-08T20:18:17;101682.72;;;3.84;71.13
12213;BME280;6169;44.158;22.788;2024-03-08T20:23:25;101679.59;;;4.03;71.53
12213;BME280;6169;44.158;22.788;2024-03-08T20:28:29;101672.16;;;6.46;60.88
12213;BME280;6169;44.158;22.788;2024-03-08T20:33:33;101671.66;;;6.57;59.96
12213;BME280;6169;44.158;22.788;2024-03-08T20:38:38;101674.53;;;6.55;58.69
12213;BME280;6169;44.158;22.788;2024-03-08T20:43:41;101668.41;;;6.47;59.53
12213;BME280;6169;44.158;22.788;2024-03-08T20:48:43;101664.16;;;4.74;64.53
12213;BME280;6169;44.158;22.788;2024-03-08T20:53:47;101661.97;;;5.90;62.13
12213;BME280;6169;44.158;22.788;2024-03-08T20:58:50;101661.53;;;6.23;60.93
12213;BME280;6169;44.158;22.788;2024-03-08T21:03:53;101654.72;;;6.12;60.43
12213;BME280;6169;44.158;22.788;2024-03-08T21:08:56;101657.28;;;5.99;60.77
12213;BME280;6169;44.158;22.788;2024-03-08T21:13:58;101655.06;;;6.02;59.62
12213;BME280;6169;44.158;22.788;2024-03-08T21:19:00;101654.47;;;6.07;59.43
12213;BME280;6169;44.158;22.788;2024-03-08T21:24:04;101647.78;;;5.73;59.94
12213;BME280;6169;44.158;22.788;2024-03-08T21:29:07;101649.09;;;5.48;60.14
12213;BME280;6169;44.158;22.788;2024-03-08T21:34:09;101639.13;;;5.33;61.43
12213;BME280;6169;44.158;22.788;2024-03-08T21:39:13;101634.31;;;5.43;60.55
12213;BME280;6169;44.158;22.788;2024-03-08T21:44:15;101635.41;;;5.19;59.15
12213;BME280;6169;44.158;22.788;2024-03-08T21:49:18;101641.63;;;5.20;58.57
12213;BME280;6169;44.158;22.788;2024-03-08T21:54:21;101628.59;;;5.09;58.25
12213;BME280;6169;44.158;22.788;2024-03-08T21:59:23;101621.38;;;4.86;60.09
12213;BME280;6169;44.158;22.788;2024-03-08T22:04:25;101621.78;;;4.60;59.03
12213;BME280;6169;44.158;22.788;2024-03-08T22:09:30;101623.78;;;4.43;60.89
12213;BME280;6169;44.158;22.788;2024-03-08T22:14:33;101617.91;;;4.40;59.44
12213;BME280;6169;44.158;22.788;2024-03-08T22:19:35;101624.25;;;3.93;59.76
12213;BME280;6169;44.158;22.788;2024-03-08T22:24:38;101627.69;;;3.78;60.58
12213;BME280;6169;44.158;22.788;2024-03-08T22:29:41;101633.47;;;3.98;59.99
12213;BME280;6169;44.158;22.788;2024-03-08T22:34:43;101631.94;;;4.04;58.87
12213;BME280;6169;44.158;22.788;2024-03-08T22:39:47;101635.13;;;3.68;59.12
12213;BME280;6169;44.158;22.788;2024-03-08T22:44:49;101636.69;;;3.94;58.25
12213;BME280;6169;44.158;22.788;2024-03-08T22:49:52;101632.41;;;3.76;58.41
12213;BME280;6169;44.158;22.788;2024-03-08T22:54:55;101636.38;;;3.57;58.36
12213;BME280;6169;44.158;22.788;2024-03-08T22:59:57;101634.13;;;3.69;57.80
12213;BME280;6169;44.158;22.788;2024-03-08T23:04:59;101632.13;;;4.02;57.48
12213;BME280;6169;44.158;22.788;2024-03-08T23:10:03;101620.88;;;3.59;57.09
12213;BME280;6169;44.158;22.788;2024-03-08T23:15:09;101622.78;;;3.82;56.13
12213;BME280;6169;44.158;22.788;2024-03-08T23:20:13;101616.97;;;3.62;57.05
12213;BME280;6169;44.158;22.788;2024-03-08T23:25:17;101609.16;;;3.44;56.86
12213;BME280;6169;44.158;22.788;2024-03-08T23:30:20;101618.56;;;3.40;56.58
12213;BME280;6169;44.158;22.788;2024-03-08T23:35:24;101620.22;;;3.57;56.00
12213;BME280;6169;44.158;22.788;2024-03-08T23:40:29;101614.00;;;3.01;56.99
12213;BME280;6169;44.158;22.788;2024-03-08T23:45:31;101615.63;;;3.66;55.04
12213;BME280;6169;44.158;22.788;2024-03-08T23:50:34;101610.88;;;3.29;55.35
12213;BME280;6169;44.158;22.788;2024-03-08T23:55:38;101604.03;;;3.10;56.72
